Time;durP1;ratioP1;P1;durP2;ratioP2;P2;SDS_P1;SDS_P2;PMS_P1;PMS_P2;Temp;Humidity;BMP_temperature;BMP_pressure;BME280_temperature;BME280_humidity;BME280_pressure;Samples;Min_cycle;Max_cycle;Signal;HPM_P1;HPM_P2
2022/05/22 00:01:29;;;;;;;3.05;0.90;;;13.20;78.60;;;;;;5021666;28;20516;-78
2022/05/22 00:03:56;;;;;;;2.42;1.02;;;13.20;78.80;;;;;;5054044;28;20391;-78
2022/05/22 00:06:23;;;;;;;2.05;0.80;;;13.20;79.00;;;;;;5044065;28;20556;-78
2022/05/22 00:08:50;;;;;;;1.80;0.73;;;13.20;79.10;;;;;;5069647;28;20045;-78
2022/05/22 00:11:17;;;;;;;2.70;1.05;;;13.10;79.10;;;;;;5029262;28;20465;-78
2022/05/22 00:13:44;;;;;;;2.65;0.77;;;13.10;79.30;;;;;;5058668;28;20061;-78
2022/05/22 00:18:57;;;;;;;2.05;0.90;;;13.10;79.50;;;;;;5057661;28;20043;-78
2022/05/22 00:21:24;;;;;;;2.90;0.80;;;13.00;79.50;;;;;;5042322;28;20041;-78
2022/05/22 00:23:51;;;;;;;1.90;0.93;;;13.00;79.70;;;;;;5058107;28;20051;-78
2022/05/22 00:26:19;;;;;;;2.50;0.80;;;12.90;79.80;;;;;;5061315;28;20054;-78
2022/05/22 00:28:46;;;;;;;1.40;0.77;;;12.90;79.90;;;;;;5036581;28;20511;-78
2022/05/22 00:31:13;;;;;;;3.63;0.93;;;12.90;80.00;;;;;;5056509;28;20127;-78
2022/05/22 00:33:41;;;;;;;2.25;0.75;;;12.80;80.00;;;;;;5029296;28;20234;-80
2022/05/22 00:36:08;;;;;;;1.98;0.70;;;12.80;80.10;;;;;;5004850;28;20041;-80
2022/05/22 00:38:35;;;;;;;2.70;0.77;;;12.80;80.10;;;;;;5026816;28;20495;-80
2022/05/22 00:41:03;;;;;;;1.50;0.63;;;12.70;80.20;;;;;;5048602;28;20036;-80
2022/05/22 00:43:37;;;;;;;5.97;0.80;;;12.70;80.30;;;;;;5039380;28;20064;-80
2022/05/22 00:46:06;;;;;;;2.63;0.70;;;12.60;80.30;;;;;;5067089;28;20040;-80
2022/05/22 00:48:34;;;;;;;3.90;0.80;;;12.60;80.40;;;;;;5062449;28;20402;-80
2022/05/22 00:51:10;;;;;;;2.67;0.55;;;12.60;80.50;;;;;;5019912;28;20056;-80
2022/05/22 00:53:44;;;;;;;2.80;0.68;;;12.50;80.60;;;;;;5039652;28;20094;-80
2022/05/22 00:56:16;;;;;;;0.95;0.47;;;12.50;80.70;;;;;;5041784;28;20103;-80
2022/05/22 00:58:44;;;;;;;1.57;0.57;;;12.40;80.70;;;;;;5066366;28;20086;-80
2022/05/22 01:01:12;;;;;;;1.15;0.50;;;12.40;80.80;;;;;;5029518;28;20095;-80
2022/05/22 01:03:39;;;;;;;2.63;0.60;;;12.30;81.00;;;;;;5056729;28;20043;-80
2022/05/22 01:06:10;;;;;;;1.13;0.70;;;12.30;81.10;;;;;;5037450;28;20053;-80
2022/05/22 01:08:39;;;;;;;1.70;0.47;;;12.30;81.20;;;;;;5065974;28;20048;-80
2022/05/22 01:11:12;;;;;;;2.08;1.05;;;12.30;81.20;;;;;;5036586;28;20045;-81
2022/05/22 01:13:43;;;;;;;2.00;0.82;;;12.30;81.30;;;;;;5065981;28;20044;-79
2022/05/22 01:16:11;;;;;;;1.70;0.45;;;12.20;81.40;;;;;;5039092;28;20056;-80
2022/05/22 01:18:50;;;;;;;2.28;0.52;;;12.20;81.50;;;;;;5045621;28;20040;-80
2022/05/22 01:21:20;;;;;;;2.22;0.95;;;12.20;81.60;;;;;;5040592;28;20033;-79
2022/05/22 01:23:48;;;;;;;3.63;0.60;;;12.10;81.50;;;;;;5040201;28;20388;-81
2022/05/22 01:26:28;;;;;;;1.10;0.68;;;12.10;81.60;;;;;;5043172;28;20049;-80
2022/05/22 01:29:18;;;;;;;1.42;0.60;;;12.00;81.60;;;;;;5047177;28;20131;-80
2022/05/22 01:31:45;;;;;;;1.00;0.60;;;12.00;81.80;;;;;;5043570;28;20056;-80
2022/05/22 01:34:12;;;;;;;4.50;0.75;;;12.00;81.90;;;;;;5054312;28;20052;-79
2022/05/22 01:36:40;;;;;;;2.47;0.63;;;12.00;82.00;;;;;;5026972;28;20123;-80
2022/05/22 01:39:07;;;;;;;1.40;0.60;;;12.00;82.10;;;;;;5039213;28;20037;-81
2022/05/22 01:41:54;;;;;;;1.25;0.55;;;12.00;82.20;;;;;;5065453;28;20059;-80
2022/05/22 01:44:22;;;;;;;1.85;0.43;;;11.90;82.10;;;;;;5048675;28;20045;-80
2022/05/22 01:46:52;;;;;;;3.10;0.77;;;11.90;82.20;;;;;;5032483;28;20048;-79
2022/05/22 01:49:22;;;;;;;1.55;0.60;;;11.90;82.20;;;;;;5062206;28;20073;-80
2022/05/22 01:51:50;;;;;;;2.15;0.43;;;11.80;82.20;;;;;;5035128;28;20105;-80
2022/05/22 01:54:17;;;;;;;1.40;0.50;;;11.80;82.20;;;;;;5011210;28;20128;-80
2022/05/22 01:56:47;;;;;;;2.05;0.65;;;11.80;82.30;;;;;;5038176;28;20037;-80
2022/05/22 01:59:17;;;;;;;2.42;0.75;;;11.80;82.40;;;;;;5038511;28;20094;-80
2022/05/22 02:01:54;;;;;;;1.17;0.52;;;11.80;82.50;;;;;;5022901;28;20044;-80
2022/05/22 02:04:21;;;;;;;2.13;0.68;;;11.70;82.60;;;;;;5047273;28;20576;-80
2022/05/22 02:09:36;;;;;;;1.55;0.60;;;11.70;82.70;;;;;;5039518;28;20048;-80
2022/05/22 02:12:04;;;;;;;1.27;0.50;;;11.70;82.80;;;;;;5033052;28;20486;-79
2022/05/22 02:14:31;;;;;;;1.50;0.63;;;11.60;82.80;;;;;;5042482;28;20406;-79
2022/05/22 02:17:12;;;;;;;1.45;0.43;;;11.60;82.90;;;;;;5038360;28;20063;-79
2022/05/22 02:19:52;;;;;;;0.88;0.30;;;11.60;82.90;;;;;;5049902;28;20451;-79
2022/05/22 02:22:41;;;;;;;2.25;0.73;;;11.60;82.90;;;;;;5011663;28;20052;-81
2022/05/22 02:25:10;;;;;;;0.80;0.35;;;11.60;83.00;;;;;;5054023;28;20057;-80
2022/05/22 02:27:38;;;;;;;1.27;0.50;;;11.50;83.00;;;;;;5052332;28;20044;-81
2022/05/22 02:30:08;;;;;;;3.47;0.50;;;11.50;83.10;;;;;;5028194;28;20459;-80
2022/05/22 02:32:38;;;;;;;2.55;0.52;;;11.50;83.10;;;;;;5052045;28;20068;-80
2022/05/22 02:35:09;;;;;;;1.65;0.57;;;11.50;83.10;;;;;;5054786;28;20056;-80
2022/05/22 02:37:55;;;;;;;1.98;0.50;;;11.50;83.20;;;;;;5070798;28;20143;-80
2022/05/22 02:40:42;;;;;;;2.10;0.60;;;11.50;83.20;;;;;;5045775;28;20123;-81
2022/05/22 02:43:10;;;;;;;0.88;0.43;;;11.40;83.30;;;;;;5018048;28;20491;-81
2022/05/22 02:45:39;;;;;;;1.00;0.40;;;11.40;83.40;;;;;;5063022;28;20574;-81
2022/05/22 02:48:10;;;;;;;1.45;0.50;;;11.40;83.40;;;;;;5066641;28;20151;-80
2022/05/22 02:50:41;;;;;;;1.17;0.43;;;11.40;83.40;;;;;;5061229;28;20115;-81
2022/05/22 02:53:10;;;;;;;3.22;0.55;;;11.30;83.30;;;;;;5067198;28;20049;-81
2022/05/22 02:56:07;;;;;;;2.10;0.70;;;11.30;83.40;;;;;;5027983;28;20053;-80
2022/05/22 02:58:47;;;;;;;1.92;0.35;;;11.30;83.50;;;;;;5045096;28;20526;-80
2022/05/22 03:01:16;;;;;;;1.23;0.57;;;11.20;83.60;;;;;;5046956;28;20037;-80
2022/05/22 03:03:46;;;;;;;0.80;0.30;;;11.20;83.60;;;;;;5043203;28;20037;-81
2022/05/22 03:09:04;;;;;;;1.48;0.47;;;11.20;83.60;;;;;;5055924;28;20123;-80
2022/05/22 03:11:31;;;;;;;0.70;0.38;;;11.20;83.70;;;;;;5025604;28;20045;-79
2022/05/22 03:14:02;;;;;;;0.85;0.50;;;11.20;83.80;;;;;;5033052;28;20049;-81
2022/05/22 03:16:29;;;;;;;1.95;0.40;;;11.20;83.80;;;;;;5034173;28;20087;-80
2022/05/22 03:19:19;;;;;;;2.10;0.50;;;11.20;83.80;;;;;;5061529;28;20076;-80
2022/05/22 03:21:46;;;;;;;3.45;0.50;;;11.10;83.80;;;;;;5036789;28;20044;-80
2022/05/22 03:24:13;;;;;;;1.65;0.70;;;11.10;83.80;;;;;;5012272;28;20139;-80
2022/05/22 03:26:51;;;;;;;1.05;0.50;;;11.10;84.00;;;;;;5046466;28;20037;-80
2022/05/22 03:29:21;;;;;;;1.10;0.50;;;11.10;84.00;;;;;;5035116;28;20049;-80
2022/05/22 03:31:52;;;;;;;0.68;0.40;;;11.10;83.90;;;;;;5042219;28;20079;-80
2022/05/22 03:34:19;;;;;;;1.30;0.50;;;11.10;84.00;;;;;;5025609;28;20045;-80
2022/05/22 03:36:51;;;;;;;1.48;0.52;;;11.10;84.00;;;;;;5041520;28;20491;-80
2022/05/22 03:39:18;;;;;;;1.60;0.60;;;11.10;84.10;;;;;;5055153;28;20483;-80
2022/05/22 03:41:46;;;;;;;3.25;0.55;;;11.00;84.10;;;;;;5024683;28;20041;-79
2022/05/22 03:44:16;;;;;;;1.35;0.47;;;11.00;84.10;;;;;;5054554;28;20444;-80
2022/05/22 03:46:47;;;;;;;1.77;0.50;;;11.00;84.20;;;;;;5053766;28;20534;-79
2022/05/22 03:49:17;;;;;;;1.63;0.57;;;11.00;84.10;;;;;;5022592;28;20053;-80
2022/05/22 03:51:47;;;;;;;1.00;0.43;;;11.00;84.20;;;;;;5046931;28;20114;-80
2022/05/22 03:54:17;;;;;;;1.38;0.40;;;11.00;84.20;;;;;;5041057;28;20103;-79
2022/05/22 03:56:48;;;;;;;1.17;0.57;;;11.00;84.30;;;;;;5025634;28;20471;-79
2022/05/22 03:59:32;;;;;;;0.73;0.40;;;11.00;84.30;;;;;;5025820;28;20041;-80
2022/05/22 04:02:00;;;;;;;1.20;0.50;;;11.00;84.30;;;;;;5060066;28;20380;-79
2022/05/22 04:04:28;;;;;;;0.90;0.47;;;11.00;85.00;;;;;;5035431;28;20045;-80
2022/05/22 04:06:59;;;;;;;0.98;0.40;;;11.00;84.40;;;;;;5037910;28;20113;-79
2022/05/22 04:09:29;;;;;;;0.68;0.40;;;11.00;84.40;;;;;;5057387;28;20460;-79
2022/05/22 04:12:11;;;;;;;2.00;0.52;;;11.00;84.90;;;;;;5039410;28;20075;-80
2022/05/22 04:14:40;;;;;;;1.13;0.38;;;11.00;84.40;;;;;;5035623;28;20449;-80
2022/05/22 04:17:09;;;;;;;1.48;0.40;;;11.00;84.40;;;;;;5037732;28;20128;-81
2022/05/22 04:19:38;;;;;;;1.17;0.50;;;11.00;84.50;;;;;;5067292;28;20041;-79
2022/05/22 04:22:07;;;;;;;2.03;0.70;;;11.00;84.50;;;;;;5037591;28;20148;-80
2022/05/22 04:27:25;;;;;;;1.90;0.57;;;11.10;84.60;;;;;;5053791;28;20040;-79
2022/05/22 04:29:52;;;;;;;2.28;0.63;;;11.10;84.50;;;;;;5042225;28;20102;-79
2022/05/22 04:32:22;;;;;;;3.55;0.60;;;11.10;84.50;;;;;;5045469;28;20033;-79
2022/05/22 04:34:52;;;;;;;1.30;0.40;;;11.20;84.50;;;;;;5061488;28;20067;-78
2022/05/22 04:37:19;;;;;;;1.40;0.60;;;11.30;84.50;;;;;;5048664;28;20045;-80
2022/05/22 04:39:48;;;;;;;0.70;0.40;;;11.30;84.40;;;;;;5049488;28;20067;-80
2022/05/22 04:42:18;;;;;;;1.35;0.57;;;11.40;84.40;;;;;;5016553;28;20154;-80
2022/05/22 04:44:46;;;;;;;1.58;0.63;;;11.40;84.40;;;;;;5055910;28;20463;-80
2022/05/22 04:47:25;;;;;;;1.38;0.47;;;11.50;84.20;;;;;;5062272;28;20171;-80
2022/05/22 04:50:17;;;;;;;2.55;0.60;;;11.70;84.00;;;;;;5054864;28;20052;-79
2022/05/22 04:53:11;;;;;;;1.50;0.55;;;11.80;83.70;;;;;;5053770;28;20088;-79
2022/05/22 04:55:57;;;;;;;1.40;0.68;;;11.90;83.40;;;;;;5061889;28;20187;-79
2022/05/22 04:58:28;;;;;;;1.25;0.50;;;12.00;83.40;;;;;;5068096;28;20079;-79
2022/05/22 05:00:58;;;;;;;1.48;0.60;;;12.00;83.50;;;;;;5044213;28;20052;-80
2022/05/22 05:03:34;;;;;;;1.85;0.75;;;12.00;83.60;;;;;;5039637;28;20040;-80
2022/05/22 05:06:02;;;;;;;5.97;0.88;;;12.00;83.70;;;;;;5044640;28;20517;-80
2022/05/22 05:08:32;;;;;;;2.28;0.90;;;12.10;83.70;;;;;;5052464;28;20098;-80
2022/05/22 05:11:11;;;;;;;1.10;0.45;;;12.10;83.70;;;;;;5038688;28;20120;-80
2022/05/22 05:13:46;;;;;;;2.78;0.70;;;12.20;83.60;;;;;;5056351;28;20044;-80
2022/05/22 05:16:16;;;;;;;3.58;1.00;;;12.20;83.50;;;;;;5050821;28;20051;-81
2022/05/22 05:18:50;;;;;;;1.15;0.70;;;12.30;83.40;;;;;;5035072;28;20045;-81
2022/05/22 05:21:18;;;;;;;1.42;0.60;;;12.30;83.30;;;;;;5048283;28;20183;-80
2022/05/22 05:23:49;;;;;;;1.08;0.60;;;12.40;83.20;;;;;;5051541;28;20033;-79
2022/05/22 05:26:20;;;;;;;2.95;0.70;;;12.50;83.20;;;;;;5050162;28;20476;-80
2022/05/22 05:28:48;;;;;;;1.80;0.88;;;12.60;83.00;;;;;;5035526;28;20052;-80
2022/05/22 05:31:27;;;;;;;2.05;0.70;;;12.60;82.90;;;;;;5041445;28;20048;-80
2022/05/22 05:33:57;;;;;;;1.98;0.65;;;12.70;83.40;;;;;;5060943;28;20508;-80
2022/05/22 05:36:34;;;;;;;2.20;0.73;;;12.80;82.60;;;;;;5056326;28;20049;-80
2022/05/22 05:39:39;;;;;;;2.60;0.70;;;12.90;82.50;;;;;;5030635;28;20040;-80
2022/05/22 05:42:06;;;;;;;4.53;1.20;;;13.10;82.40;;;;;;5044766;28;20456;-80
2022/05/22 05:44:35;;;;;;;3.60;1.55;;;13.20;82.20;;;;;;5043562;28;20068;-79
2022/05/22 05:47:21;;;;;;;2.47;1.20;;;13.30;82.00;;;;;;5063334;28;20125;-80
2022/05/22 05:50:01;;;;;;;2.15;0.90;;;13.40;81.80;;;;;;5031093;28;20040;-80
2022/05/22 05:52:46;;;;;;;2.45;0.90;;;13.60;81.60;;;;;;5053737;28;20417;-80
2022/05/22 05:55:40;;;;;;;2.40;0.98;;;13.70;81.40;;;;;;5043430;28;20096;-80
2022/05/22 05:58:27;;;;;;;2.90;0.65;;;13.90;81.30;;;;;;5053843;28;20360;-80
2022/05/22 06:01:28;;;;;;;2.30;1.02;;;14.00;81.10;;;;;;5030642;28;20048;-80
2022/05/22 06:03:55;;;;;;;1.92;0.98;;;14.10;80.90;;;;;;5034550;28;20171;-79
2022/05/22 06:06:23;;;;;;;2.63;1.13;;;14.20;80.70;;;;;;5048040;28;20099;-80
2022/05/22 06:08:52;;;;;;;3.88;1.00;;;14.30;80.60;;;;;;5051818;28;20478;-80
2022/05/22 06:11:57;;;;;;;3.03;0.98;;;14.50;80.50;;;;;;5070974;28;20062;-77
2022/05/22 06:14:31;;;;;;;3.65;0.80;;;14.60;80.30;;;;;;5036900;28;20041;-77
2022/05/22 06:16:59;;;;;;;2.35;0.70;;;14.70;80.10;;;;;;5018394;28;20037;-77
2022/05/22 06:22:34;;;;;;;1.55;0.95;;;15.00;79.70;;;;;;5062724;28;20060;-78
2022/05/22 06:25:06;;;;;;;2.05;0.85;;;15.10;79.40;;;;;;5059972;28;20048;-79
2022/05/22 06:27:46;;;;;;;3.10;0.70;;;15.20;79.20;;;;;;5051376;28;20414;-79
2022/05/22 06:30:31;;;;;;;2.45;0.60;;;15.30;79.10;;;;;;5010168;28;20048;-78
2022/05/22 06:33:20;;;;;;;2.50;0.90;;;15.40;78.90;;;;;;5051665;28;20137;-79
2022/05/22 06:36:09;;;;;;;2.45;0.88;;;15.50;78.70;;;;;;5046826;28;20472;-79
2022/05/22 06:41:59;;;;;;;2.10;0.80;;;15.70;78.30;;;;;;5051933;28;20051;-79
2022/05/22 06:44:59;;;;;;;2.35;0.98;;;15.80;78.10;;;;;;5029155;28;20399;-79
2022/05/22 06:47:34;;;;;;;1.70;0.75;;;15.80;77.90;;;;;;5062455;28;20045;-79
2022/05/22 06:50:24;;;;;;;4.97;0.68;;;16.00;77.70;;;;;;5051269;28;20554;-79
2022/05/22 06:53:10;;;;;;;4.25;0.90;;;16.00;77.50;;;;;;5061397;28;20040;-79
2022/05/22 06:56:06;;;;;;;3.50;0.60;;;16.10;77.30;;;;;;5032074;28;20128;-78
2022/05/22 06:58:34;;;;;;;3.10;0.60;;;16.20;77.10;;;;;;5042443;28;20055;-78
2022/05/22 07:01:20;;;;;;;4.00;0.65;;;16.30;76.90;;;;;;5056748;28;20060;-79
2022/05/22 07:03:56;;;;;;;2.53;0.68;;;16.30;77.20;;;;;;5061477;28;20063;-79
2022/05/22 07:06:41;;;;;;;3.33;1.10;;;16.50;76.50;;;;;;5054885;28;20063;-79
2022/05/22 07:09:17;;;;;;;3.45;0.68;;;16.60;76.30;;;;;;5041666;28;20048;-78
2022/05/22 07:12:12;;;;;;;3.72;1.00;;;16.70;76.10;;;;;;5042815;28;20533;-80
2022/05/22 07:14:44;;;;;;;2.65;0.70;;;16.80;75.90;;;;;;5035148;28;20103;-79
2022/05/22 07:17:27;;;;;;;3.67;1.00;;;16.90;75.70;;;;;;5056662;28;20041;-77
2022/05/22 07:20:04;;;;;;;2.47;0.80;;;17.00;75.60;;;;;;5048979;28;20076;-77
2022/05/22 07:22:43;;;;;;;1.95;0.90;;;17.10;75.30;;;;;;5061602;28;20057;-78
2022/05/22 07:25:22;;;;;;;3.25;1.23;;;17.20;75.10;;;;;;5046683;28;20088;-78
2022/05/22 07:28:08;;;;;;;4.75;0.88;;;17.20;74.90;;;;;;5050951;28;20044;-78
2022/05/22 07:31:16;;;;;;;3.08;0.82;;;17.40;74.70;;;;;;4972625;28;20429;-77
2022/05/22 07:34:01;;;;;;;3.50;0.65;;;17.50;74.50;;;;;;4996296;28;20089;-78
2022/05/22 07:37:03;;;;;;;3.90;0.60;;;17.60;74.70;;;;;;5007776;28;20041;-79
2022/05/22 07:40:02;;;;;;;1.35;0.52;;;17.70;73.60;;;;;;5056380;28;20037;-79
2022/05/22 07:42:55;;;;;;;3.75;0.52;;;17.80;73.50;;;;;;5045255;28;20049;-78
2022/05/22 07:45:42;;;;;;;2.80;0.82;;;17.80;73.20;;;;;;5060756;28;20191;-79
2022/05/22 07:48:23;;;;;;;2.22;0.75;;;17.90;73.20;;;;;;5035871;28;20402;-79
2022/05/22 07:51:06;;;;;;;1.40;0.63;;;17.80;72.90;;;;;;5041588;28;20037;-78
2022/05/22 07:53:58;;;;;;;2.53;0.80;;;18.00;72.90;;;;;;5055759;28;20503;-78
2022/05/22 07:56:54;;;;;;;3.67;0.77;;;18.00;72.50;;;;;;5055051;28;20283;-79
2022/05/22 07:59:35;;;;;;;1.60;0.80;;;18.10;72.20;;;;;;5039858;28;20413;-78
2022/05/22 08:02:20;;;;;;;2.92;0.68;;;18.20;72.00;;;;;;5051635;28;20132;-79
2022/05/22 08:04:58;;;;;;;1.90;0.70;;;18.30;71.80;;;;;;5055026;28;20044;-79
2022/05/22 08:07:38;;;;;;;2.28;0.50;;;18.30;71.50;;;;;;5070519;28;20082;-80
2022/05/22 08:10:16;;;;;;;2.65;0.70;;;18.40;71.40;;;;;;5052329;28;20047;-79
2022/05/22 08:12:47;;;;;;;1.45;0.50;;;18.50;71.20;;;;;;5049931;28;20055;-78
2022/05/22 08:15:25;;;;;;;2.28;0.50;;;18.60;70.90;;;;;;5033944;28;20132;-78
2022/05/22 08:18:01;;;;;;;0.88;0.40;;;18.70;70.60;;;;;;5045164;28;20495;-80
2022/05/22 08:20:29;;;;;;;2.75;0.50;;;18.80;70.30;;;;;;5053480;28;20045;-79
2022/05/22 08:23:07;;;;;;;1.60;0.60;;;19.00;69.90;;;;;;5024052;28;20041;-79
2022/05/22 08:25:43;;;;;;;3.22;0.70;;;19.00;69.50;;;;;;5047007;28;20079;-79
2022/05/22 08:28:12;;;;;;;2.65;0.57;;;19.10;69.40;;;;;;5027477;28;20115;-79
2022/05/22 08:30:42;;;;;;;2.85;0.57;;;19.20;69.20;;;;;;5060311;28;20051;-79
2022/05/22 08:33:10;;;;;;;1.75;0.47;;;19.30;69.00;;;;;;5051059;28;20072;-80
2022/05/22 08:35:40;;;;;;;1.80;0.30;;;19.40;68.80;;;;;;5061211;28;20053;-80
2022/05/22 08:38:08;;;;;;;2.50;0.50;;;19.50;68.60;;;;;;5071665;28;20041;-80
2022/05/22 08:40:40;;;;;;;1.35;0.57;;;19.50;68.20;;;;;;5046324;28;20107;-80
2022/05/22 08:43:33;;;;;;;1.85;0.40;;;19.60;67.90;;;;;;5053028;28;20037;-78
2022/05/22 08:46:11;;;;;;;3.55;0.70;;;19.70;67.60;;;;;;5073598;28;20072;-80
2022/05/22 08:48:49;;;;;;;2.05;0.50;;;19.70;67.40;;;;;;5056840;28;20521;-79
2022/05/22 08:51:26;;;;;;;1.95;0.47;;;19.80;67.30;;;;;;5050995;28;20139;-80
2022/05/22 08:53:58;;;;;;;2.22;0.60;;;19.90;67.10;;;;;;5042849;28;20522;-80
2022/05/22 08:59:25;;;;;;;0.80;0.20;;;19.90;66.80;;;;;;5054990;28;20015;-80
2022/05/22 09:02:21;;;;;;;4.90;0.60;;;20.10;66.50;;;;;;5036517;28;20460;-80
2022/05/22 09:04:56;;;;;;;3.28;0.70;;;20.20;66.10;;;;;;5052548;28;20064;-78
2022/05/22 09:07:35;;;;;;;1.90;0.50;;;20.20;65.60;;;;;;5042925;28;20061;-79
2022/05/22 09:10:08;;;;;;;3.15;0.47;;;20.20;65.20;;;;;;5056250;28;20033;-78
2022/05/22 09:12:51;;;;;;;2.17;0.50;;;20.30;64.70;;;;;;5059261;28;20434;-78
2022/05/22 09:15:34;;;;;;;4.78;0.70;;;20.30;64.80;;;;;;5045638;28;20045;-77
2022/05/22 09:18:35;;;;;;;2.00;0.50;;;20.30;64.40;;;;;;5058609;28;20044;-79
2022/05/22 09:21:23;;;;;;;3.83;0.55;;;20.40;64.50;;;;;;5043162;28;20182;-80
2022/05/22 09:23:54;;;;;;;1.98;0.40;;;20.50;64.30;;;;;;5049350;28;20041;-80
2022/05/22 09:26:40;;;;;;;1.92;0.47;;;20.60;64.10;;;;;;5071466;28;20457;-79
2022/05/22 09:29:22;;;;;;;1.27;0.30;;;20.60;63.80;;;;;;5041259;28;20052;-79
2022/05/22 09:32:06;;;;;;;2.50;0.40;;;20.70;63.60;;;;;;5075348;28;20421;-80
2022/05/22 09:35:00;;;;;;;2.75;0.52;;;20.80;63.00;;;;;;5070635;28;20102;-80
2022/05/22 09:37:52;;;;;;;0.63;0.30;;;21.00;62.80;;;;;;5049286;28;20418;-80
2022/05/22 09:40:28;;;;;;;1.27;0.20;;;21.00;62.60;;;;;;5054005;28;20091;-80
2022/05/22 09:43:40;;;;;;;1.02;0.30;;;21.10;62.60;;;;;;5054972;28;20049;-80
2022/05/22 09:46:31;;;;;;;2.63;0.20;;;21.30;62.30;;;;;;5071537;28;20045;-79
2022/05/22 09:49:26;;;;;;;3.10;0.28;;;21.40;62.00;;;;;;5045992;28;20051;-81
2022/05/22 09:52:03;;;;;;;1.40;0.30;;;21.40;61.50;;;;;;5041704;28;20048;-81
2022/05/22 09:55:08;;;;;;;1.52;0.20;;;21.30;61.00;;;;;;5070533;28;20041;-81
2022/05/22 09:57:54;;;;;;;1.60;0.35;;;21.20;60.90;;;;;;5026621;28;20045;-79
2022/05/22 10:00:33;;;;;;;1.88;0.30;;;21.20;60.80;;;;;;5040694;28;20052;-79
2022/05/22 10:03:18;;;;;;;0.88;0.10;;;21.20;60.90;;;;;;5047474;28;20525;-78
2022/05/22 10:05:57;;;;;;;1.35;0.30;;;21.30;60.80;;;;;;5058463;28;20032;-79
2022/05/22 10:08:43;;;;;;;2.15;0.30;;;21.40;60.30;;;;;;5053760;28;20102;-80
2022/05/22 10:11:34;;;;;;;1.40;0.30;;;21.50;59.90;;;;;;5052027;28;20094;-81
2022/05/22 10:14:42;;;;;;;1.45;0.40;;;21.60;59.80;;;;;;5051556;28;20186;-81
2022/05/22 10:17:09;;;;;;;1.38;0.30;;;21.80;59.50;;;;;;5061693;28;20037;-81
2022/05/22 10:20:05;;;;;;;2.25;0.57;;;21.90;59.50;;;;;;5041084;28;20122;-81
2022/05/22 10:22:49;;;;;;;1.80;0.50;;;22.00;58.10;;;;;;5035565;28;20111;-78
2022/05/22 10:25:40;;;;;;;2.30;0.40;;;21.90;58.60;;;;;;5051582;28;20098;-78
2022/05/22 10:28:17;;;;;;;2.28;0.70;;;21.90;58.40;;;;;;5043489;28;20414;-79
2022/05/22 10:31:03;;;;;;;2.20;0.63;;;21.90;57.60;;;;;;5035616;28;20481;-80
2022/05/22 10:33:43;;;;;;;2.33;0.30;;;21.80;58.10;;;;;;5050679;28;20128;-80
2022/05/22 10:36:14;;;;;;;3.22;0.70;;;21.80;58.30;;;;;;5049994;28;20057;-79
2022/05/22 10:39:17;;;;;;;2.03;0.30;;;21.90;58.00;;;;;;5060215;28;20064;-79
2022/05/22 10:44:55;;;;;;;1.70;0.30;;;22.00;57.60;;;;;;5058785;28;20411;-80
2022/05/22 10:47:28;;;;;;;1.75;0.30;;;22.10;57.60;;;;;;5057157;28;20041;-80
2022/05/22 10:49:57;;;;;;;1.67;0.30;;;22.30;57.50;;;;;;5044359;28;20090;-81
2022/05/22 10:52:31;;;;;;;1.55;0.22;;;22.50;57.10;;;;;;5054645;28;20466;-80
2022/05/22 10:55:05;;;;;;;0.73;0.20;;;22.70;56.90;;;;;;5064624;28;20057;-80
2022/05/22 10:57:32;;;;;;;2.15;0.30;;;22.90;56.60;;;;;;5050857;28;20063;-79
2022/05/22 11:00:17;;;;;;;1.98;0.50;;;23.00;57.00;;;;;;5050828;28;20041;-80
2022/05/22 11:02:44;;;;;;;1.10;0.40;;;23.10;56.00;;;;;;5034117;28;20072;-80
2022/05/22 11:05:27;;;;;;;1.05;0.28;;;23.30;56.00;;;;;;5037530;28;20410;-79
2022/05/22 11:07:59;;;;;;;1.65;0.20;;;23.40;55.80;;;;;;5058782;28;20045;-79
2022/05/22 11:10:39;;;;;;;0.63;0.10;;;23.50;55.70;;;;;;5055822;28;20037;-80
2022/05/22 11:13:43;;;;;;;1.27;0.25;;;23.70;55.50;;;;;;5027248;28;20158;-79
2022/05/22 11:16:54;;;;;;;2.78;0.47;;;23.80;55.20;;;;;;5050904;28;20045;-79
2022/05/22 11:19:41;;;;;;;0.90;0.30;;;23.80;55.20;;;;;;4987055;28;20139;-80
2022/05/22 11:22:34;;;;;;;1.17;0.20;;;23.70;55.30;;;;;;4995654;28;20251;-80
2022/05/22 11:25:52;;;;;;;2.35;0.40;;;23.60;55.40;;;;;;5052083;28;20099;-80
2022/05/22 11:28:56;;;;;;;2.30;0.38;;;23.40;55.30;;;;;;5059194;28;20032;-79
2022/05/22 11:31:46;;;;;;;1.40;0.38;;;23.40;55.20;;;;;;5058908;28;20114;-79
2022/05/22 11:34:44;;;;;;;2.40;0.38;;;23.60;55.10;;;;;;5050312;28;20490;-80
2022/05/22 11:37:31;;;;;;;1.05;0.20;;;23.70;54.40;;;;;;5059709;28;20045;-79
2022/05/22 11:40:25;;;;;;;1.60;0.30;;;23.70;54.40;;;;;;5057742;28;20435;-79
2022/05/22 11:43:07;;;;;;;1.60;0.38;;;23.80;53.90;;;;;;5048970;28;20044;-78
2022/05/22 11:46:01;;;;;;;2.03;0.68;;;24.00;53.70;;;;;;5070218;28;20116;-79
2022/05/22 11:48:49;;;;;;;1.40;0.50;;;24.30;53.10;;;;;;5055945;28;20049;-78
2022/05/22 11:51:50;;;;;;;1.63;0.38;;;24.60;52.70;;;;;;5070517;28;20047;-77
2022/05/22 11:54:34;;;;;;;0.70;0.28;;;25.00;52.10;;;;;;5050351;28;20049;-78
2022/05/22 11:57:30;;;;;;;0.60;0.30;;;25.30;51.60;;;;;;5051892;28;20065;-78
2022/05/22 12:00:19;;;;;;;1.48;0.75;;;25.80;51.00;;;;;;5072394;28;20051;-79
2022/05/22 12:03:11;;;;;;;1.42;0.38;;;26.20;50.30;;;;;;5060017;28;20040;-78
2022/05/22 12:06:02;;;;;;;1.65;0.43;;;26.50;50.10;;;;;;5071283;28;20497;-79
2022/05/22 12:08:47;;;;;;;1.95;0.40;;;26.80;49.60;;;;;;5073753;28;20032;-79
2022/05/22 12:11:39;;;;;;;2.50;0.50;;;27.10;49.20;;;;;;5071279;28;20482;-78
2022/05/22 12:14:54;;;;;;;1.75;0.60;;;27.40;48.30;;;;;;5060558;28;20048;-75
2022/05/22 12:17:38;;;;;;;1.80;0.45;;;27.40;48.00;;;;;;5072676;28;20094;-76
2022/05/22 12:20:14;;;;;;;1.98;0.80;;;27.60;48.10;;;;;;5067395;28;20040;-76
2022/05/22 12:23:23;;;;;;;2.00;0.50;;;28.00;47.80;;;;;;5053259;28;20072;-76
2022/05/22 12:25:54;;;;;;;2.22;0.60;;;28.20;46.80;;;;;;5045326;28;20056;-76
2022/05/22 12:28:25;;;;;;;1.45;0.57;;;28.00;46.30;;;;;;5059969;28;20040;-76
2022/05/22 12:30:55;;;;;;;3.50;0.93;;;27.90;45.90;;;;;;5067815;28;20098;-76
2022/05/22 12:33:23;;;;;;;3.28;0.93;;;27.80;45.40;;;;;;5059658;28;20055;-76
2022/05/22 12:35:52;;;;;;;1.13;0.50;;;27.60;45.40;;;;;;5066740;28;20542;-76
2022/05/22 12:38:19;;;;;;;2.72;0.65;;;27.80;45.60;;;;;;5046455;28;20041;-76
2022/05/22 12:40:55;;;;;;;3.10;1.10;;;28.20;45.40;;;;;;5064935;28;20242;-75
2022/05/22 12:43:23;;;;;;;1.92;0.60;;;28.30;44.30;;;;;;5053210;28;20403;-77
2022/05/22 12:45:56;;;;;;;1.05;0.65;;;28.50;44.70;;;;;;5054194;28;20052;-73
2022/05/22 12:48:33;;;;;;;1.42;0.50;;;28.90;44.40;;;;;;5066899;28;20037;-77
2022/05/22 12:51:08;;;;;;;2.03;0.40;;;29.30;44.20;;;;;;5056509;28;20072;-80
2022/05/22 12:53:38;;;;;;;2.50;0.70;;;29.60;43.60;;;;;;5054786;28;20056;-78
2022/05/22 12:56:17;;;;;;;1.80;0.40;;;29.60;43.30;;;;;;5044377;28;20044;-78
2022/05/22 12:59:22;;;;;;;1.90;0.50;;;29.70;43.20;;;;;;5055681;28;20344;-81
2022/05/22 13:01:54;;;;;;;3.03;0.50;;;29.80;42.70;;;;;;5016071;28;20048;-81
2022/05/22 13:04:33;;;;;;;1.50;0.40;;;30.20;42.80;;;;;;5067925;28;20045;-79
2022/05/22 13:07:07;;;;;;;1.17;0.40;;;30.60;42.50;;;;;;5067309;28;20491;-76
2022/05/22 13:09:43;;;;;;;1.42;0.60;;;30.90;42.10;;;;;;5052496;28;20773;-78
2022/05/22 13:12:32;;;;;;;2.03;0.40;;;31.20;41.90;;;;;;5049942;28;20044;-79
2022/05/22 13:15:06;;;;;;;2.00;0.50;;;31.50;41.70;;;;;;5054113;28;20049;-76
2022/05/22 13:17:43;;;;;;;1.50;0.50;;;31.60;41.50;;;;;;5054430;28;20044;-77
2022/05/22 13:20:35;;;;;;;1.38;0.60;;;31.90;41.40;;;;;;5055105;28;20079;-76
2022/05/22 13:23:12;;;;;;;1.88;0.55;;;32.20;41.10;;;;;;5056341;28;20437;-77
2022/05/22 13:25:43;;;;;;;0.88;0.40;;;32.10;40.60;;;;;;5055108;28;20406;-76
2022/05/22 13:28:29;;;;;;;1.63;0.40;;;32.00;40.80;;;;;;5060317;28;20044;-75
2022/05/22 13:31:03;;;;;;;1.90;0.40;;;32.30;40.50;;;;;;5054495;28;20495;-76
2022/05/22 13:33:32;;;;;;;1.45;0.30;;;32.70;40.50;;;;;;5068292;28;20044;-75
2022/05/22 13:36:11;;;;;;;1.15;0.50;;;32.80;39.90;;;;;;5044780;28;20049;-76
2022/05/22 13:38:38;;;;;;;1.15;0.38;;;32.90;39.80;;;;;;5065686;28;20747;-76
2022/05/22 13:41:34;;;;;;;1.73;0.30;;;33.00;39.60;;;;;;5031932;28;20410;-75
2022/05/22 13:44:37;;;;;;;1.55;0.45;;;33.00;39.20;;;;;;5060180;28;20091;-76
2022/05/22 13:47:32;;;;;;;1.05;0.30;;;33.10;39.20;;;;;;5041868;28;20076;-76
2022/05/22 13:53:22;;;;;;;4.07;0.40;;;32.20;39.60;;;;;;5055855;28;20110;-78
2022/05/22 13:55:50;;;;;;;4.72;0.50;;;32.30;39.50;;;;;;5054084;28;20039;-80
2022/05/22 13:58:38;;;;;;;2.17;0.40;;;32.60;39.30;;;;;;5066120;28;20091;-79
2022/05/22 14:01:20;;;;;;;2.60;0.60;;;33.10;38.70;;;;;;5052577;28;20073;-80
2022/05/22 14:03:54;;;;;;;1.38;0.40;;;33.20;38.20;;;;;;5040040;28;20045;-80
2022/05/22 14:06:30;;;;;;;1.95;0.50;;;33.40;38.10;;;;;;5064044;28;20094;-80
2022/05/22 14:08:59;;;;;;;2.38;0.40;;;33.70;37.70;;;;;;5068142;28;20053;-82
2022/05/22 14:11:28;;;;;;;1.73;0.40;;;33.90;37.50;;;;;;5041535;28;20095;-81